createdAt,value
2022-10-07T00:01:11.809Z,2.93
2022-10-07T00:03:40.077Z,2.83
2022-10-07T00:06:15.235Z,2.70
2022-10-07T00:08:45.014Z,2.80
2022-10-07T00:11:15.228Z,3.00
2022-10-07T00:13:45.987Z,3.50
2022-10-07T00:16:17.420Z,2.20
2022-10-07T00:18:45.999Z,3.27
2022-10-07T00:21:16.246Z,3.00
2022-10-07T00:23:45.847Z,2.80
2022-10-07T00:26:16.688Z,3.10
2022-10-07T00:28:45.615Z,3.23
2022-10-07T00:31:17.517Z,3.27
2022-10-07T00:33:46.569Z,3.50
2022-10-07T00:36:16.233Z,3.50
2022-10-07T00:38:44.444Z,3.13
2022-10-07T00:41:19.691Z,3.20
2022-10-07T00:43:48.007Z,3.80
2022-10-07T00:46:26.918Z,3.40
2022-10-07T00:48:56.594Z,3.50
2022-10-07T00:51:24.826Z,3.33
2022-10-07T00:53:54.512Z,3.87
2022-10-07T00:56:24.736Z,3.73
2022-10-07T00:58:53.017Z,3.80
2022-10-07T01:01:23.000Z,3.43
2022-10-07T01:06:40.535Z,3.20
2022-10-07T01:09:10.942Z,3.63
2022-10-07T01:11:49.276Z,3.20
2022-10-07T01:14:27.299Z,3.03
2022-10-07T01:17:03.151Z,3.10
2022-10-07T01:19:46.873Z,3.17
2022-10-07T01:22:26.804Z,2.90
2022-10-07T01:25:12.988Z,3.50
2022-10-07T01:27:48.315Z,3.40
2022-10-07T01:30:16.763Z,2.90
2022-10-07T01:32:53.228Z,3.13
2022-10-07T01:35:25.013Z,2.80
2022-10-07T01:37:58.140Z,3.87
2022-10-07T01:40:29.883Z,3.40
2022-10-07T01:43:00.350Z,3.43
2022-10-07T01:45:30.358Z,3.20
2022-10-07T01:47:59.232Z,3.57
2022-10-07T01:50:30.337Z,2.80
2022-10-07T01:53:12.800Z,2.97
2022-10-07T01:55:56.126Z,3.00
2022-10-07T01:58:34.325Z,3.40
2022-10-07T02:01:11.930Z,2.60
2022-10-07T02:04:09.246Z,3.00
2022-10-07T02:06:43.867Z,2.97
2022-10-07T02:09:22.229Z,2.80
2022-10-07T02:11:53.707Z,3.03
2022-10-07T02:14:26.561Z,2.57
2022-10-07T02:16:59.311Z,2.83
2022-10-07T02:19:29.870Z,2.90
2022-10-07T02:22:01.035Z,2.97
2022-10-07T02:24:31.615Z,2.80
2022-10-07T02:27:04.905Z,2.80
2022-10-07T02:29:36.663Z,2.67
2022-10-07T02:32:10.176Z,2.27
2022-10-07T02:34:41.155Z,2.43
2022-10-07T02:37:15.721Z,2.50
2022-10-07T02:39:46.051Z,2.50
2022-10-07T02:42:21.916Z,2.57
2022-10-07T02:44:54.088Z,3.00
2022-10-07T02:47:29.486Z,2.40
2022-10-07T02:50:01.300Z,2.67
2022-10-07T02:52:34.147Z,2.30
2022-10-07T02:55:06.241Z,2.50
2022-10-07T02:57:38.865Z,2.47
2022-10-07T03:00:11.429Z,2.60
2022-10-07T03:02:44.867Z,2.50
2022-10-07T03:05:14.301Z,2.20
2022-10-07T03:07:43.134Z,2.47
2022-10-07T03:10:11.632Z,2.93
2022-10-07T03:12:39.554Z,2.07
2022-10-07T03:15:11.588Z,2.43
2022-10-07T03:17:40.062Z,2.27
2022-10-07T03:20:09.570Z,2.07
2022-10-07T03:22:37.860Z,2.30
2022-10-07T03:25:06.627Z,2.97
2022-10-07T03:27:34.542Z,2.30
2022-10-07T03:30:02.733Z,2.47
2022-10-07T03:32:32.028Z,2.67
2022-10-07T03:34:59.899Z,3.37
2022-10-07T03:37:30.657Z,3.00
2022-10-07T03:39:58.566Z,2.47
2022-10-07T03:42:26.754Z,2.33
2022-10-07T03:44:55.208Z,2.37
2022-10-07T03:47:23.154Z,2.60
2022-10-07T03:49:52.431Z,2.70
2022-10-07T03:52:20.469Z,2.77
2022-10-07T03:54:48.400Z,2.90
2022-10-07T03:57:33.185Z,2.77
2022-10-07T04:00:01.136Z,3.03
2022-10-07T04:02:29.380Z,2.73
2022-10-07T04:04:58.809Z,2.60
2022-10-07T04:07:26.736Z,2.73
2022-10-07T04:09:54.620Z,2.47
2022-10-07T04:12:22.648Z,3.07
2022-10-07T04:14:50.581Z,2.67
2022-10-07T04:17:19.682Z,2.83
2022-10-07T04:19:47.772Z,3.27
2022-10-07T04:22:17.024Z,2.73
2022-10-07T04:25:05.033Z,3.27
2022-10-07T04:27:50.726Z,3.33
2022-10-07T04:30:23.446Z,3.00
2022-10-07T04:32:52.086Z,3.53
2022-10-07T04:35:21.019Z,2.50
2022-10-07T04:37:51.156Z,3.37
2022-10-07T04:40:20.009Z,3.63
2022-10-07T04:43:05.601Z,3.30
2022-10-07T04:45:34.047Z,3.33
2022-10-07T04:48:02.209Z,3.57
2022-10-07T04:50:30.210Z,3.23
2022-10-07T04:52:59.689Z,3.70
2022-10-07T04:55:28.226Z,3.53
2022-10-07T04:57:56.260Z,3.03
2022-10-07T05:00:25.660Z,3.60
2022-10-07T05:02:53.689Z,3.53
2022-10-07T05:05:21.765Z,3.57
2022-10-07T05:07:51.599Z,3.33
2022-10-07T05:10:21.236Z,3.30
2022-10-07T05:12:52.605Z,3.47
2022-10-07T05:15:23.886Z,3.70
2022-10-07T05:17:54.149Z,3.77
2022-10-07T05:20:22.076Z,3.63
2022-10-07T05:22:50.006Z,3.73
2022-10-07T05:25:18.336Z,3.60
2022-10-07T05:27:51.195Z,3.60
2022-10-07T05:30:19.237Z,4.27
2022-10-07T05:32:47.183Z,4.13
2022-10-07T05:35:15.329Z,4.07
2022-10-07T05:37:47.522Z,3.50
2022-10-07T05:40:18.115Z,3.90
2022-10-07T05:42:47.418Z,3.80
2022-10-07T05:45:15.507Z,3.73
2022-10-07T05:47:44.075Z,4.20
2022-10-07T05:50:12.469Z,4.03
2022-10-07T05:52:40.618Z,4.53
2022-10-07T05:55:09.384Z,4.33
2022-10-07T05:57:39.272Z,3.70
2022-10-07T06:00:10.065Z,3.73
2022-10-07T06:02:38.855Z,3.80
2022-10-07T06:05:07.770Z,3.90
2022-10-07T06:07:35.725Z,4.47
2022-10-07T06:10:26.464Z,3.43
2022-10-07T06:13:09.608Z,3.70
2022-10-07T06:15:39.023Z,4.40
2022-10-07T06:18:07.045Z,3.87
2022-10-07T06:20:34.983Z,4.13
2022-10-07T06:23:03.062Z,4.20
2022-10-07T06:25:31.000Z,4.20
2022-10-07T06:27:59.985Z,4.43
2022-10-07T06:30:29.404Z,3.47
2022-10-07T06:32:58.780Z,4.13
2022-10-07T06:35:26.703Z,4.30
2022-10-07T06:37:54.757Z,3.87
2022-10-07T06:40:22.685Z,3.70
2022-10-07T06:42:50.595Z,4.03
2022-10-07T06:45:18.625Z,4.20
2022-10-07T06:47:46.950Z,3.73
2022-10-07T06:50:16.722Z,3.90
2022-10-07T06:52:44.969Z,3.83
2022-10-07T06:55:13.089Z,3.70
2022-10-07T07:02:16.116Z,3.80
2022-10-07T07:36:01.833Z,4.27
2022-10-07T07:38:58.371Z,3.63
2022-10-07T07:41:51.040Z,4.00
2022-10-07T07:44:34.747Z,4.27
2022-10-07T07:48:17.392Z,4.00
2022-10-07T07:51:15.932Z,4.27
2022-10-07T07:54:15.355Z,4.00
2022-10-07T07:57:28.030Z,4.13
2022-10-07T08:00:23.507Z,4.45
2022-10-07T08:03:03.629Z,4.40
2022-10-07T08:05:41.248Z,3.87
2022-10-07T08:08:35.196Z,3.40
2022-10-07T08:11:32.812Z,4.33
2022-10-07T08:14:34.758Z,4.30
2022-10-07T08:18:11.932Z,4.37
2022-10-07T08:26:21.890Z,3.90
2022-10-07T08:34:50.509Z,3.77
2022-10-07T08:38:24.758Z,4.53
2022-10-07T10:15:17.394Z,2.85
2022-10-07T10:17:45.474Z,3.60
2022-10-07T10:24:08.210Z,3.15
2022-10-07T10:26:58.278Z,3.17
2022-10-07T10:29:51.472Z,2.90
2022-10-07T10:32:51.062Z,3.00
2022-10-07T10:35:25.517Z,2.58
2022-10-07T10:38:15.239Z,2.97
2022-10-07T10:40:49.249Z,2.90
2022-10-07T10:43:30.511Z,2.80
2022-10-07T10:46:15.816Z,2.78
2022-10-07T10:48:52.714Z,2.88
2022-10-07T10:51:42.289Z,3.17
2022-10-07T11:01:59.547Z,2.53
2022-10-07T11:04:45.376Z,2.72
2022-10-07T11:07:34.117Z,2.90
2022-10-07T11:10:07.928Z,2.80
2022-10-07T11:12:40.948Z,2.58
2022-10-07T11:15:18.069Z,2.72
2022-10-07T11:17:50.018Z,2.33
2022-10-07T11:20:25.140Z,3.00
2022-10-07T11:22:58.049Z,2.33
2022-10-07T11:25:32.585Z,2.30
2022-10-07T11:28:15.385Z,2.45
2022-10-07T11:31:02.169Z,2.70
2022-10-07T11:33:41.220Z,2.75
2022-10-07T11:36:16.031Z,2.85
2022-10-07T11:38:44.877Z,2.70
2022-10-07T11:41:22.103Z,2.47
2022-10-07T11:43:55.800Z,2.83
2022-10-07T11:46:27.802Z,3.30
2022-10-07T11:49:03.143Z,2.70
2022-10-07T11:51:37.716Z,2.42
2022-10-07T11:54:11.343Z,2.38
2022-10-07T11:56:48.129Z,2.58
2022-10-07T11:59:36.846Z,2.85
2022-10-07T12:02:41.076Z,2.83
2022-10-07T12:05:48.007Z,2.97
2022-10-07T12:08:29.168Z,2.60
2022-10-07T12:11:18.402Z,3.05
2022-10-07T12:13:47.649Z,2.67
2022-10-07T12:16:55.292Z,2.67
2022-10-07T12:19:24.135Z,2.72
2022-10-07T12:22:29.890Z,2.55
2022-10-07T12:25:32.309Z,2.95
2022-10-07T12:28:01.546Z,3.17
2022-10-07T12:30:52.359Z,3.42
2022-10-07T12:33:30.389Z,2.92
2022-10-07T12:36:01.993Z,2.80
2022-10-07T12:39:09.774Z,2.15
2022-10-07T12:41:45.211Z,2.47
2022-10-07T12:44:19.339Z,2.90
2022-10-07T12:46:55.785Z,2.60
2022-10-07T12:49:33.382Z,3.00
2022-10-07T12:52:07.302Z,2.70
2022-10-07T12:54:44.333Z,2.35
2022-10-07T12:57:14.586Z,2.95
2022-10-07T12:59:53.193Z,3.03
2022-10-07T13:03:09.066Z,2.72
2022-10-07T13:06:15.845Z,2.63
2022-10-07T13:09:17.069Z,3.08
2022-10-07T13:12:13.712Z,2.40
2022-10-07T13:14:52.912Z,2.13
2022-10-07T13:17:34.944Z,2.92
2022-10-07T13:20:13.854Z,2.10
2022-10-07T13:22:47.130Z,2.80
2022-10-07T13:25:18.543Z,2.00
2022-10-07T13:27:53.656Z,3.15
2022-10-07T13:30:40.271Z,2.90
2022-10-07T13:33:24.361Z,2.83
2022-10-07T13:35:53.746Z,2.88
2022-10-07T13:38:23.803Z,2.33
2022-10-07T13:41:00.205Z,2.95
2022-10-07T13:43:31.124Z,2.35
2022-10-07T13:46:01.432Z,2.20
2022-10-07T13:48:34.572Z,2.80
2022-10-07T13:51:03.592Z,1.90
2022-10-07T13:53:35.300Z,2.33
2022-10-07T13:56:20.089Z,2.83
2022-10-07T13:58:49.881Z,2.70
2022-10-07T14:01:18.491Z,2.78
2022-10-07T14:04:12.605Z,2.33
2022-10-07T14:06:52.323Z,2.80
2022-10-07T14:09:24.524Z,2.47
2022-10-07T14:11:56.432Z,2.13
2022-10-07T14:14:29.226Z,2.33
2022-10-07T14:17:00.216Z,2.67
2022-10-07T14:19:33.285Z,2.25
2022-10-07T14:22:04.404Z,1.92
2022-10-07T14:24:32.848Z,2.15
2022-10-07T14:27:00.983Z,2.67
2022-10-07T14:29:39.506Z,2.40
2022-10-07T14:32:38.151Z,2.05
2022-10-07T14:35:20.884Z,2.65
2022-10-07T14:37:49.489Z,2.10
2022-10-07T14:40:20.105Z,2.10
2022-10-07T14:42:48.663Z,2.50
2022-10-07T14:45:20.461Z,2.47
2022-10-07T14:47:49.134Z,1.85
2022-10-07T14:50:19.484Z,2.50
2022-10-07T14:52:51.857Z,2.17
2022-10-07T14:55:23.634Z,1.73
2022-10-07T14:57:52.961Z,2.50
2022-10-07T15:00:24.688Z,2.28
2022-10-07T15:03:18.291Z,2.40
2022-10-07T15:05:48.356Z,2.53
2022-10-07T15:08:20.103Z,2.00
2022-10-07T15:10:48.127Z,1.70
2022-10-07T15:13:16.063Z,1.88
2022-10-07T15:15:47.389Z,2.42
2022-10-07T15:19:18.343Z,2.00
2022-10-07T15:21:46.749Z,2.25
2022-10-07T15:24:40.642Z,2.35
2022-10-07T15:27:10.116Z,2.17
2022-10-07T16:50:10.156Z,2.10
2022-10-07T16:52:38.905Z,2.08
2022-10-07T16:55:07.910Z,1.92
2022-10-07T16:57:37.699Z,1.95
2022-10-07T17:00:06.691Z,1.63
2022-10-07T17:02:35.850Z,1.83
2022-10-07T17:05:05.744Z,2.30
2022-10-07T17:07:34.027Z,2.08
2022-10-07T17:10:02.059Z,2.03
2022-10-07T17:12:30.294Z,2.20
2022-10-07T17:14:58.478Z,2.30
2022-10-07T17:17:26.538Z,2.58
2022-10-07T17:19:54.447Z,2.42
2022-10-07T17:22:23.724Z,2.33
2022-10-07T17:24:52.409Z,2.90
2022-10-07T17:27:20.350Z,2.17
2022-10-07T17:29:48.276Z,2.47
2022-10-07T17:32:16.714Z,2.08
2022-10-07T17:34:45.531Z,2.13
2022-10-07T17:37:13.717Z,2.67
2022-10-07T17:39:43.078Z,2.03
2022-10-07T17:42:10.976Z,2.53
2022-10-07T17:44:38.918Z,2.58
2022-10-07T17:47:06.979Z,2.13
2022-10-07T17:49:35.011Z,2.28
2022-10-07T17:52:03.026Z,3.10
2022-10-07T17:54:31.363Z,2.75
2022-10-07T17:57:00.671Z,2.70
2022-10-07T17:59:28.608Z,2.55
2022-10-07T18:01:56.632Z,2.38
2022-10-07T18:04:25.282Z,2.25
2022-10-07T18:06:53.409Z,2.40
2022-10-07T18:09:22.831Z,2.08
2022-10-07T18:12:08.180Z,2.50
2022-10-07T18:14:55.000Z,2.17
2022-10-07T18:17:24.542Z,2.17
2022-10-07T18:19:52.893Z,2.33
2022-10-07T18:22:20.999Z,2.47
2022-10-07T18:24:49.721Z,2.15
2022-10-07T18:27:17.692Z,2.47
2022-10-07T18:29:47.127Z,2.70
2022-10-07T18:32:15.117Z,2.30
2022-10-07T18:34:43.124Z,2.28
2022-10-07T18:37:11.354Z,2.33
2022-10-07T18:39:39.495Z,2.05
2022-10-07T18:42:07.851Z,2.72
2022-10-07T18:44:36.309Z,2.30
2022-10-07T18:47:20.124Z,2.33
2022-10-07T18:49:48.439Z,2.05
2022-10-07T18:52:16.614Z,2.20
2022-10-07T18:54:44.499Z,2.47
2022-10-07T18:57:12.611Z,2.67
2022-10-07T18:59:40.600Z,2.10
2022-10-07T19:02:11.355Z,2.13
2022-10-07T19:04:41.697Z,2.58
2022-10-07T19:07:09.646Z,2.55
2022-10-07T19:09:37.655Z,2.63
2022-10-07T19:12:26.502Z,2.45
2022-10-07T19:14:54.091Z,2.58
2022-10-07T19:17:23.047Z,2.17
2022-10-07T19:19:52.616Z,2.17
2022-10-07T19:22:20.613Z,3.25
2022-10-07T19:25:06.247Z,2.75
2022-10-07T19:27:34.214Z,2.95
2022-10-07T19:30:02.191Z,2.53
2022-10-07T19:32:31.387Z,3.13
2022-10-07T19:35:01.238Z,2.53
2022-10-07T19:37:30.300Z,2.58
2022-10-07T19:39:58.901Z,2.80
2022-10-07T19:42:28.617Z,2.90
2022-10-07T19:44:56.573Z,2.53
2022-10-07T19:47:25.533Z,2.90
2022-10-07T19:49:53.941Z,3.13
2022-10-07T19:52:27.399Z,3.00
2022-10-07T19:54:55.831Z,2.75
2022-10-07T19:57:24.368Z,3.08
2022-10-07T19:59:52.953Z,3.10
2022-10-07T20:02:21.566Z,3.00
2022-10-07T20:04:50.388Z,2.85
2022-10-07T20:07:18.698Z,2.67
2022-10-07T20:09:48.499Z,3.47
2022-10-07T20:12:17.039Z,3.40
2022-10-07T20:14:46.674Z,3.10
2022-10-07T20:17:14.738Z,2.83
2022-10-07T20:19:42.727Z,3.20
2022-10-07T20:22:12.500Z,2.70
2022-10-07T20:24:40.466Z,2.78
2022-10-07T20:27:10.622Z,2.92
2022-10-07T20:29:57.830Z,3.60
2022-10-07T20:32:26.174Z,2.90
2022-10-07T20:34:54.928Z,3.72
2022-10-07T20:37:23.746Z,2.97
2022-10-07T20:40:09.330Z,3.17
2022-10-07T20:42:42.188Z,3.50
2022-10-07T20:45:12.572Z,3.30
2022-10-07T20:47:41.465Z,3.63
2022-10-07T20:50:10.071Z,3.58
2022-10-07T20:52:38.068Z,3.13
2022-10-07T20:55:08.053Z,3.22
2022-10-07T20:57:38.097Z,3.53
2022-10-07T21:00:16.378Z,2.90
2022-10-07T21:02:45.496Z,3.15
2022-10-07T21:05:13.819Z,3.78
2022-10-07T21:07:43.522Z,2.90
2022-10-07T21:10:11.561Z,3.63
2022-10-07T21:12:40.673Z,3.33
2022-10-07T21:15:12.021Z,3.33
2022-10-07T21:17:40.947Z,3.80
2022-10-07T21:20:10.063Z,3.75
2022-10-07T21:22:38.631Z,3.65
2022-10-07T21:25:11.746Z,3.50
2022-10-07T21:27:39.951Z,3.85
2022-10-07T21:30:11.853Z,3.30
2022-10-07T21:32:39.956Z,4.10
2022-10-07T21:35:08.523Z,3.35
2022-10-07T21:37:36.457Z,3.55
2022-10-07T21:40:04.655Z,3.40
2022-10-07T21:42:32.728Z,3.75
2022-10-07T21:45:01.627Z,3.38
2022-10-07T21:47:31.066Z,3.22
2022-10-07T21:49:59.026Z,3.22
2022-10-07T21:52:26.945Z,3.42
2022-10-07T21:54:55.529Z,2.47
2022-10-07T21:57:23.480Z,3.30
2022-10-07T21:59:52.315Z,3.20
2022-10-07T22:02:20.491Z,3.05
2022-10-07T22:04:49.808Z,2.83
2022-10-07T22:07:35.528Z,2.88
2022-10-07T22:10:03.493Z,3.28
2022-10-07T22:12:31.409Z,2.72
2022-10-07T22:14:59.860Z,2.67
2022-10-07T22:17:27.797Z,2.95
2022-10-07T22:19:57.097Z,2.80
2022-10-07T22:22:25.529Z,2.85
2022-10-07T22:24:53.446Z,3.05
2022-10-07T22:27:22.047Z,3.00
2022-10-07T22:29:50.332Z,2.88
2022-10-07T22:32:18.568Z,3.17
2022-10-07T22:35:04.439Z,2.78
2022-10-07T22:37:33.702Z,2.80
2022-10-07T22:40:01.623Z,3.00
2022-10-07T22:42:29.628Z,3.22
2022-10-07T22:44:57.538Z,2.90
2022-10-07T22:47:25.575Z,3.03
2022-10-07T22:49:55.797Z,3.17
2022-10-07T22:52:23.768Z,2.90
2022-10-07T22:54:53.367Z,3.30
2022-10-07T22:57:21.792Z,2.92
2022-10-07T22:59:49.744Z,2.70
2022-10-07T23:02:17.709Z,2.97
2022-10-07T23:04:45.976Z,2.90
2022-10-07T23:07:13.889Z,2.97
2022-10-07T23:09:41.798Z,2.78
2022-10-07T23:12:11.473Z,2.78
2022-10-07T23:14:40.257Z,2.60
2022-10-07T23:17:09.101Z,3.30
2022-10-07T23:19:38.282Z,3.00
2022-10-07T23:22:07.281Z,3.78
2022-10-07T23:24:35.440Z,3.00
2022-10-07T23:27:04.307Z,3.28
2022-10-07T23:29:33.748Z,2.67
2022-10-07T23:32:01.655Z,2.85
2022-10-07T23:34:29.819Z,3.22
2022-10-07T23:36:57.738Z,3.33
2022-10-07T23:39:25.750Z,2.85
2022-10-07T23:41:53.816Z,3.20
2022-10-07T23:44:23.027Z,3.45
2022-10-07T23:46:52.574Z,3.20
2022-10-07T23:49:20.728Z,3.08
2022-10-07T23:51:48.666Z,2.63
2022-10-07T23:54:16.944Z,2.97
2022-10-07T23:56:44.980Z,2.95
2022-10-07T23:59:13.361Z,3.17
